sensor_id;sensor_type;location;lat;lon;timestamp;P1;durP1;ratioP1;P2;durP2;ratioP2
78120;SDS011;67585;44.802;10.332;2024-02-23T00:01:34;41.88;;;16.75;;
78120;SDS011;67585;44.802;10.332;2024-02-23T00:04:00;42.63;;;15.77;;
78120;SDS011;67585;44.802;10.332;2024-02-23T00:06:27;41.45;;;16.67;;
78120;SDS011;67585;44.802;10.332;2024-02-23T00:08:53;39.00;;;15.80;;
78120;SDS011;67585;44.802;10.332;2024-02-23T00:11:23;40.63;;;15.77;;
78120;SDS011;67585;44.802;10.332;2024-02-23T00:13:49;39.92;;;17.33;;
78120;SDS011;67585;44.802;10.332;2024-02-23T00:16:18;39.08;;;16.10;;
78120;SDS011;67585;44.802;10.332;2024-02-23T00:18:47;39.95;;;16.27;;
78120;SDS011;67585;44.802;10.332;2024-02-23T00:21:16;43.53;;;14.70;;
78120;SDS011;67585;44.802;10.332;2024-02-23T00:23:43;45.15;;;16.55;;
78120;SDS011;67585;44.802;10.332;2024-02-23T00:26:09;36.53;;;15.05;;
78120;SDS011;67585;44.802;10.332;2024-02-23T00:28:34;34.75;;;15.43;;
78120;SDS011;67585;44.802;10.332;2024-02-23T00:31:00;32.53;;;13.52;;
78120;SDS011;67585;44.802;10.332;2024-02-23T00:33:26;41.42;;;14.85;;
78120;SDS011;67585;44.802;10.332;2024-02-23T00:35:54;37.67;;;16.00;;
78120;SDS011;67585;44.802;10.332;2024-02-23T00:38:20;37.03;;;15.77;;
78120;SDS011;67585;44.802;10.332;2024-02-23T00:40:48;31.42;;;12.43;;
78120;SDS011;67585;44.802;10.332;2024-02-23T00:43:14;33.55;;;13.63;;
78120;SDS011;67585;44.802;10.332;2024-02-23T00:45:39;37.35;;;13.68;;
78120;SDS011;67585;44.802;10.332;2024-02-23T00:48:06;32.97;;;13.55;;
78120;SDS011;67585;44.802;10.332;2024-02-23T00:50:31;34.67;;;14.65;;
78120;SDS011;67585;44.802;10.332;2024-02-23T00:52:57;29.95;;;13.18;;
78120;SDS011;67585;44.802;10.332;2024-02-23T00:55:22;38.78;;;16.67;;
78120;SDS011;67585;44.802;10.332;2024-02-23T00:57:50;38.03;;;14.15;;
78120;SDS011;67585;44.802;10.332;2024-02-23T01:00:15;36.00;;;13.35;;
78120;SDS011;67585;44.802;10.332;2024-02-23T01:02:43;36.22;;;15.68;;
78120;SDS011;67585;44.802;10.332;2024-02-23T01:05:09;36.97;;;14.70;;
78120;SDS011;67585;44.802;10.332;2024-02-23T01:07:35;33.42;;;13.23;;
78120;SDS011;67585;44.802;10.332;2024-02-23T01:10:01;34.47;;;13.60;;
78120;SDS011;67585;44.802;10.332;2024-02-23T01:12:26;34.60;;;14.77;;
78120;SDS011;67585;44.802;10.332;2024-02-23T01:14:52;34.58;;;12.30;;
78120;SDS011;67585;44.802;10.332;2024-02-23T01:17:18;28.10;;;11.68;;
78120;SDS011;67585;44.802;10.332;2024-02-23T01:19:44;28.10;;;11.65;;
78120;SDS011;67585;44.802;10.332;2024-02-23T01:22:12;34.28;;;13.93;;
78120;SDS011;67585;44.802;10.332;2024-02-23T01:24:41;30.70;;;13.00;;
78120;SDS011;67585;44.802;10.332;2024-02-23T01:27:06;29.88;;;11.98;;
78120;SDS011;67585;44.802;10.332;2024-02-23T01:29:33;25.60;;;10.80;;
78120;SDS011;67585;44.802;10.332;2024-02-23T01:31:59;22.58;;;10.10;;
78120;SDS011;67585;44.802;10.332;2024-02-23T01:34:24;24.27;;;7.85;;
78120;SDS011;67585;44.802;10.332;2024-02-23T01:36:50;28.27;;;9.55;;
78120;SDS011;67585;44.802;10.332;2024-02-23T01:39:16;22.60;;;10.52;;
78120;SDS011;67585;44.802;10.332;2024-02-23T01:41:41;23.85;;;9.48;;
78120;SDS011;67585;44.802;10.332;2024-02-23T01:44:09;23.80;;;11.15;;
78120;SDS011;67585;44.802;10.332;2024-02-23T01:46:35;32.08;;;12.10;;
78120;SDS011;67585;44.802;10.332;2024-02-23T01:49:01;30.88;;;11.38;;
78120;SDS011;67585;44.802;10.332;2024-02-23T01:51:27;30.10;;;11.93;;
78120;SDS011;67585;44.802;10.332;2024-02-23T01:53:53;26.08;;;11.02;;
78120;SDS011;67585;44.802;10.332;2024-02-23T01:56:18;24.83;;;11.70;;
78120;SDS011;67585;44.802;10.332;2024-02-23T01:58:46;27.08;;;9.65;;
78120;SDS011;67585;44.802;10.332;2024-02-23T02:01:12;23.98;;;10.38;;
78120;SDS011;67585;44.802;10.332;2024-02-23T02:03:40;27.90;;;11.25;;
78120;SDS011;67585;44.802;10.332;2024-02-23T02:06:06;25.73;;;11.07;;
78120;SDS011;67585;44.802;10.332;2024-02-23T02:08:35;29.60;;;11.00;;
78120;SDS011;67585;44.802;10.332;2024-02-23T02:11:01;20.73;;;10.02;;
78120;SDS011;67585;44.802;10.332;2024-02-23T02:13:30;24.02;;;8.27;;
78120;SDS011;67585;44.802;10.332;2024-02-23T02:16:04;17.63;;;7.10;;
78120;SDS011;67585;44.802;10.332;2024-02-23T02:18:30;23.27;;;9.82;;
78120;SDS011;67585;44.802;10.332;2024-02-23T02:20:56;23.10;;;8.88;;
78120;SDS011;67585;44.802;10.332;2024-02-23T02:23:22;23.05;;;8.75;;
78120;SDS011;67585;44.802;10.332;2024-02-23T02:28:23;21.27;;;9.15;;
78120;SDS011;67585;44.802;10.332;2024-02-23T02:30:53;19.48;;;9.55;;
78120;SDS011;67585;44.802;10.332;2024-02-23T02:33:19;23.45;;;9.00;;
78120;SDS011;67585;44.802;10.332;2024-02-23T02:35:45;19.02;;;8.68;;
78120;SDS011;67585;44.802;10.332;2024-02-23T02:38:11;20.75;;;8.30;;
78120;SDS011;67585;44.802;10.332;2024-02-23T02:40:37;20.83;;;8.25;;
78120;SDS011;67585;44.802;10.332;2024-02-23T02:43:02;20.70;;;7.60;;
78120;SDS011;67585;44.802;10.332;2024-02-23T02:45:28;20.42;;;7.80;;
78120;SDS011;67585;44.802;10.332;2024-02-23T02:47:54;19.40;;;8.48;;
78120;SDS011;67585;44.802;10.332;2024-02-23T02:50:19;24.27;;;8.10;;
78120;SDS011;67585;44.802;10.332;2024-02-23T02:52:45;20.50;;;8.70;;
78120;SDS011;67585;44.802;10.332;2024-02-23T02:55:11;20.73;;;7.80;;
78120;SDS011;67585;44.802;10.332;2024-02-23T02:57:36;25.55;;;7.47;;
78120;SDS011;67585;44.802;10.332;2024-02-23T03:00:03;20.02;;;7.32;;
78120;SDS011;67585;44.802;10.332;2024-02-23T03:02:35;18.35;;;6.93;;
78120;SDS011;67585;44.802;10.332;2024-02-23T03:05:00;19.83;;;6.07;;
78120;SDS011;67585;44.802;10.332;2024-02-23T03:07:28;17.23;;;7.32;;
78120;SDS011;67585;44.802;10.332;2024-02-23T03:09:57;19.15;;;5.05;;
78120;SDS011;67585;44.802;10.332;2024-02-23T03:12:23;16.25;;;7.10;;
78120;SDS011;67585;44.802;10.332;2024-02-23T03:14:49;19.27;;;7.55;;
78120;SDS011;67585;44.802;10.332;2024-02-23T03:17:14;17.73;;;6.20;;
78120;SDS011;67585;44.802;10.332;2024-02-23T03:19:40;17.20;;;6.50;;
78120;SDS011;67585;44.802;10.332;2024-02-23T03:22:09;13.85;;;5.85;;
78120;SDS011;67585;44.802;10.332;2024-02-23T03:24:34;16.35;;;7.10;;
78120;SDS011;67585;44.802;10.332;2024-02-23T03:27:00;18.40;;;7.70;;
78120;SDS011;67585;44.802;10.332;2024-02-23T03:29:26;14.75;;;5.78;;
78120;SDS011;67585;44.802;10.332;2024-02-23T03:31:57;16.05;;;6.25;;
78120;SDS011;67585;44.802;10.332;2024-02-23T03:34:23;18.00;;;6.35;;
78120;SDS011;67585;44.802;10.332;2024-02-23T03:36:49;15.38;;;5.43;;
78120;SDS011;67585;44.802;10.332;2024-02-23T03:39:15;20.13;;;6.03;;
78120;SDS011;67585;44.802;10.332;2024-02-23T03:41:40;14.70;;;6.63;;
78120;SDS011;67585;44.802;10.332;2024-02-23T03:44:06;13.38;;;5.43;;
78120;SDS011;67585;44.802;10.332;2024-02-23T03:46:31;16.10;;;5.15;;
78120;SDS011;67585;44.802;10.332;2024-02-23T03:48:57;14.90;;;6.85;;
78120;SDS011;67585;44.802;10.332;2024-02-23T03:51:22;15.50;;;5.85;;
78120;SDS011;67585;44.802;10.332;2024-02-23T03:53:48;13.07;;;4.40;;
78120;SDS011;67585;44.802;10.332;2024-02-23T03:56:14;14.07;;;5.55;;
78120;SDS011;67585;44.802;10.332;2024-02-23T03:58:40;11.23;;;4.43;;
78120;SDS011;67585;44.802;10.332;2024-02-23T04:01:06;17.25;;;4.20;;
78120;SDS011;67585;44.802;10.332;2024-02-23T04:03:31;9.90;;;3.53;;
78120;SDS011;67585;44.802;10.332;2024-02-23T04:05:57;11.90;;;3.53;;
78120;SDS011;67585;44.802;10.332;2024-02-23T04:08:22;14.55;;;4.05;;
78120;SDS011;67585;44.802;10.332;2024-02-23T04:10:48;12.00;;;3.90;;
78120;SDS011;67585;44.802;10.332;2024-02-23T04:13:13;11.02;;;4.25;;
78120;SDS011;67585;44.802;10.332;2024-02-23T04:15:39;12.43;;;4.93;;
78120;SDS011;67585;44.802;10.332;2024-02-23T04:18:05;12.07;;;2.22;;
78120;SDS011;67585;44.802;10.332;2024-02-23T04:20:31;9.50;;;3.28;;
78120;SDS011;67585;44.802;10.332;2024-02-23T04:22:57;10.65;;;3.42;;
78120;SDS011;67585;44.802;10.332;2024-02-23T04:25:23;9.70;;;2.88;;
78120;SDS011;67585;44.802;10.332;2024-02-23T04:27:49;10.85;;;3.92;;
78120;SDS011;67585;44.802;10.332;2024-02-23T04:30:14;10.45;;;3.92;;
78120;SDS011;67585;44.802;10.332;2024-02-23T04:32:40;9.50;;;4.32;;
78120;SDS011;67585;44.802;10.332;2024-02-23T04:35:05;12.35;;;4.22;;
78120;SDS011;67585;44.802;10.332;2024-02-23T04:37:31;7.45;;;3.30;;
78120;SDS011;67585;44.802;10.332;2024-02-23T04:39:56;13.63;;;3.50;;
78120;SDS011;67585;44.802;10.332;2024-02-23T04:42:22;9.93;;;2.42;;
78120;SDS011;67585;44.802;10.332;2024-02-23T04:44:47;6.78;;;3.58;;
78120;SDS011;67585;44.802;10.332;2024-02-23T04:47:14;8.77;;;2.03;;
78120;SDS011;67585;44.802;10.332;2024-02-23T04:49:40;8.05;;;3.28;;
78120;SDS011;67585;44.802;10.332;2024-02-23T04:52:06;6.85;;;2.67;;
78120;SDS011;67585;44.802;10.332;2024-02-23T04:54:32;9.32;;;2.70;;
78120;SDS011;67585;44.802;10.332;2024-02-23T04:56:58;9.40;;;3.05;;
78120;SDS011;67585;44.802;10.332;2024-02-23T04:59:23;11.00;;;3.17;;
78120;SDS011;67585;44.802;10.332;2024-02-23T05:01:49;10.02;;;2.17;;
78120;SDS011;67585;44.802;10.332;2024-02-23T05:04:15;7.07;;;2.35;;
78120;SDS011;67585;44.802;10.332;2024-02-23T05:06:40;10.70;;;2.83;;
78120;SDS011;67585;44.802;10.332;2024-02-23T05:09:07;10.95;;;3.45;;
78120;SDS011;67585;44.802;10.332;2024-02-23T05:11:34;6.15;;;1.63;;
78120;SDS011;67585;44.802;10.332;2024-02-23T05:14:00;8.98;;;2.30;;
78120;SDS011;67585;44.802;10.332;2024-02-23T05:16:25;11.02;;;2.53;;
78120;SDS011;67585;44.802;10.332;2024-02-23T05:18:51;8.57;;;2.03;;
78120;SDS011;67585;44.802;10.332;2024-02-23T05:21:17;8.35;;;2.95;;
78120;SDS011;67585;44.802;10.332;2024-02-23T05:23:42;8.88;;;1.83;;
78120;SDS011;67585;44.802;10.332;2024-02-23T05:26:08;8.77;;;1.88;;
78120;SDS011;67585;44.802;10.332;2024-02-23T05:28:34;6.10;;;2.35;;
78120;SDS011;67585;44.802;10.332;2024-02-23T05:31:01;5.63;;;1.33;;
78120;SDS011;67585;44.802;10.332;2024-02-23T05:33:28;7.63;;;2.42;;
78120;SDS011;67585;44.802;10.332;2024-02-23T05:35:54;8.32;;;2.47;;
78120;SDS011;67585;44.802;10.332;2024-02-23T05:38:19;6.85;;;2.78;;
78120;SDS011;67585;44.802;10.332;2024-02-23T05:40:45;9.93;;;2.63;;
78120;SDS011;67585;44.802;10.332;2024-02-23T05:43:10;8.75;;;2.50;;
78120;SDS011;67585;44.802;10.332;2024-02-23T05:45:36;9.15;;;3.10;;
78120;SDS011;67585;44.802;10.332;2024-02-23T05:48:01;12.43;;;2.92;;
78120;SDS011;67585;44.802;10.332;2024-02-23T05:50:27;8.25;;;2.60;;
78120;SDS011;67585;44.802;10.332;2024-02-23T05:52:52;8.73;;;1.98;;
78120;SDS011;67585;44.802;10.332;2024-02-23T05:55:18;8.35;;;2.83;;
78120;SDS011;67585;44.802;10.332;2024-02-23T05:57:44;11.57;;;3.67;;
78120;SDS011;67585;44.802;10.332;2024-02-23T06:00:09;9.68;;;5.05;;
78120;SDS011;67585;44.802;10.332;2024-02-23T06:02:35;12.93;;;4.35;;
78120;SDS011;67585;44.802;10.332;2024-02-23T06:05:00;13.02;;;6.20;;
78120;SDS011;67585;44.802;10.332;2024-02-23T06:07:26;13.80;;;5.00;;
78120;SDS011;67585;44.802;10.332;2024-02-23T06:10:00;14.68;;;5.68;;
78120;SDS011;67585;44.802;10.332;2024-02-23T06:12:45;11.55;;;5.35;;
78120;SDS011;67585;44.802;10.332;2024-02-23T06:15:11;12.70;;;5.75;;
78120;SDS011;67585;44.802;10.332;2024-02-23T06:17:37;16.48;;;5.40;;
78120;SDS011;67585;44.802;10.332;2024-02-23T06:22:33;16.88;;;6.00;;
78120;SDS011;67585;44.802;10.332;2024-02-23T06:24:59;13.48;;;5.80;;
78120;SDS011;67585;44.802;10.332;2024-02-23T06:27:24;13.82;;;5.68;;
78120;SDS011;67585;44.802;10.332;2024-02-23T06:29:52;15.18;;;4.60;;
78120;SDS011;67585;44.802;10.332;2024-02-23T06:32:18;18.40;;;6.40;;
78120;SDS011;67585;44.802;10.332;2024-02-23T06:34:43;17.73;;;6.25;;
78120;SDS011;67585;44.802;10.332;2024-02-23T06:37:08;12.55;;;5.60;;
78120;SDS011;67585;44.802;10.332;2024-02-23T06:39:34;15.00;;;5.57;;
78120;SDS011;67585;44.802;10.332;2024-02-23T06:42:00;17.63;;;6.30;;
78120;SDS011;67585;44.802;10.332;2024-02-23T06:44:29;9.57;;;4.88;;
78120;SDS011;67585;44.802;10.332;2024-02-23T06:46:54;9.45;;;3.72;;
78120;SDS011;67585;44.802;10.332;2024-02-23T06:49:19;14.93;;;6.30;;
78120;SDS011;67585;44.802;10.332;2024-02-23T06:51:45;15.38;;;5.30;;
78120;SDS011;67585;44.802;10.332;2024-02-23T06:54:10;12.05;;;5.07;;
78120;SDS011;67585;44.802;10.332;2024-02-23T06:56:35;17.80;;;5.10;;
78120;SDS011;67585;44.802;10.332;2024-02-23T06:59:02;16.48;;;7.07;;
78120;SDS011;67585;44.802;10.332;2024-02-23T07:01:27;15.10;;;8.13;;
78120;SDS011;67585;44.802;10.332;2024-02-23T07:03:53;16.90;;;6.25;;
78120;SDS011;67585;44.802;10.332;2024-02-23T07:06:18;18.35;;;8.07;;
78120;SDS011;67585;44.802;10.332;2024-02-23T07:08:44;15.98;;;8.15;;
78120;SDS011;67585;44.802;10.332;2024-02-23T07:11:10;15.23;;;6.93;;
78120;SDS011;67585;44.802;10.332;2024-02-23T07:13:36;17.08;;;7.80;;
78120;SDS011;67585;44.802;10.332;2024-02-23T07:16:01;15.65;;;7.30;;
78120;SDS011;67585;44.802;10.332;2024-02-23T07:18:27;17.15;;;7.32;;
78120;SDS011;67585;44.802;10.332;2024-02-23T07:20:53;17.10;;;6.90;;
78120;SDS011;67585;44.802;10.332;2024-02-23T07:23:18;18.35;;;8.48;;
78120;SDS011;67585;44.802;10.332;2024-02-23T07:25:43;18.52;;;7.03;;
78120;SDS011;67585;44.802;10.332;2024-02-23T07:28:09;15.75;;;7.15;;
78120;SDS011;67585;44.802;10.332;2024-02-23T07:30:34;16.33;;;7.78;;
78120;SDS011;67585;44.802;10.332;2024-02-23T07:33:00;17.35;;;7.47;;
78120;SDS011;67585;44.802;10.332;2024-02-23T07:35:25;19.05;;;7.60;;
78120;SDS011;67585;44.802;10.332;2024-02-23T07:37:51;18.90;;;6.80;;
78120;SDS011;67585;44.802;10.332;2024-02-23T07:40:17;18.02;;;8.15;;
78120;SDS011;67585;44.802;10.332;2024-02-23T07:42:42;15.68;;;6.53;;
78120;SDS011;67585;44.802;10.332;2024-02-23T07:45:08;26.15;;;8.32;;
78120;SDS011;67585;44.802;10.332;2024-02-23T07:47:34;19.58;;;7.88;;
78120;SDS011;67585;44.802;10.332;2024-02-23T07:49:59;18.25;;;6.65;;
78120;SDS011;67585;44.802;10.332;2024-02-23T07:52:25;16.33;;;6.32;;
78120;SDS011;67585;44.802;10.332;2024-02-23T07:54:51;18.30;;;6.85;;
78120;SDS011;67585;44.802;10.332;2024-02-23T07:57:20;13.15;;;7.10;;
78120;SDS011;67585;44.802;10.332;2024-02-23T07:59:46;18.10;;;7.03;;
78120;SDS011;67585;44.802;10.332;2024-02-23T08:02:12;14.70;;;6.93;;
78120;SDS011;67585;44.802;10.332;2024-02-23T08:04:37;16.70;;;7.07;;
78120;SDS011;67585;44.802;10.332;2024-02-23T08:07:03;16.70;;;8.43;;
78120;SDS011;67585;44.802;10.332;2024-02-23T08:09:29;19.00;;;7.03;;
78120;SDS011;67585;44.802;10.332;2024-02-23T08:11:57;14.20;;;6.72;;
78120;SDS011;67585;44.802;10.332;2024-02-23T08:14:23;14.27;;;6.40;;
78120;SDS011;67585;44.802;10.332;2024-02-23T08:16:48;11.80;;;5.93;;
78120;SDS011;67585;44.802;10.332;2024-02-23T08:19:15;16.58;;;5.90;;
78120;SDS011;67585;44.802;10.332;2024-02-23T08:21:40;15.20;;;6.47;;
78120;SDS011;67585;44.802;10.332;2024-02-23T08:24:06;13.30;;;5.70;;
78120;SDS011;67585;44.802;10.332;2024-02-23T08:26:32;12.70;;;5.82;;
78120;SDS011;67585;44.802;10.332;2024-02-23T08:28:58;12.52;;;5.35;;
78120;SDS011;67585;44.802;10.332;2024-02-23T08:31:24;14.73;;;4.65;;
78120;SDS011;67585;44.802;10.332;2024-02-23T08:33:49;14.52;;;5.80;;
78120;SDS011;67585;44.802;10.332;2024-02-23T08:36:15;9.82;;;3.53;;
78120;SDS011;67585;44.802;10.332;2024-02-23T08:38:40;8.77;;;3.85;;
78120;SDS011;67585;44.802;10.332;2024-02-23T08:41:05;10.55;;;4.50;;
78120;SDS011;67585;44.802;10.332;2024-02-23T08:43:31;7.70;;;4.45;;
78120;SDS011;67585;44.802;10.332;2024-02-23T08:45:56;9.93;;;2.42;;
78120;SDS011;67585;44.802;10.332;2024-02-23T08:48:22;9.18;;;2.38;;
78120;SDS011;67585;44.802;10.332;2024-02-23T08:50:47;8.80;;;4.05;;
78120;SDS011;67585;44.802;10.332;2024-02-23T08:53:12;7.68;;;3.25;;
78120;SDS011;67585;44.802;10.332;2024-02-23T08:55:38;8.10;;;3.15;;
78120;SDS011;67585;44.802;10.332;2024-02-23T08:58:03;6.20;;;2.65;;
78120;SDS011;67585;44.802;10.332;2024-02-23T09:02:56;4.97;;;1.40;;
78120;SDS011;67585;44.802;10.332;2024-02-23T09:05:21;6.50;;;1.67;;
78120;SDS011;67585;44.802;10.332;2024-02-23T09:07:46;5.72;;;2.13;;
78120;SDS011;67585;44.802;10.332;2024-02-23T09:10:12;4.85;;;1.80;;
78120;SDS011;67585;44.802;10.332;2024-02-23T09:12:38;5.22;;;1.73;;
78120;SDS011;67585;44.802;10.332;2024-02-23T09:15:03;4.65;;;2.17;;
78120;SDS011;67585;44.802;10.332;2024-02-23T09:17:30;4.85;;;1.45;;
78120;SDS011;67585;44.802;10.332;2024-02-23T09:19:58;5.07;;;1.77;;
78120;SDS011;67585;44.802;10.332;2024-02-23T09:22:24;4.97;;;2.63;;
78120;SDS011;67585;44.802;10.332;2024-02-23T09:24:49;6.18;;;2.17;;
78120;SDS011;67585;44.802;10.332;2024-02-23T09:27:14;5.00;;;2.33;;
78120;SDS011;67585;44.802;10.332;2024-02-23T09:29:40;5.95;;;1.33;;
78120;SDS011;67585;44.802;10.332;2024-02-23T09:32:06;8.93;;;1.90;;
78120;SDS011;67585;44.802;10.332;2024-02-23T09:34:32;5.53;;;1.33;;
78120;SDS011;67585;44.802;10.332;2024-02-23T09:36:57;4.43;;;1.80;;
78120;SDS011;67585;44.802;10.332;2024-02-23T09:39:22;6.30;;;2.85;;
78120;SDS011;67585;44.802;10.332;2024-02-23T09:41:51;6.18;;;1.88;;
78120;SDS011;67585;44.802;10.332;2024-02-23T09:44:16;6.82;;;2.70;;
78120;SDS011;67585;44.802;10.332;2024-02-23T09:46:43;6.00;;;2.67;;
78120;SDS011;67585;44.802;10.332;2024-02-23T09:49:10;7.05;;;2.13;;
78120;SDS011;67585;44.802;10.332;2024-02-23T09:51:36;9.20;;;2.03;;
78120;SDS011;67585;44.802;10.332;2024-02-23T09:54:04;6.72;;;2.75;;
78120;SDS011;67585;44.802;10.332;2024-02-23T09:56:29;8.40;;;2.78;;
78120;SDS011;67585;44.802;10.332;2024-02-23T09:58:59;5.45;;;2.10;;
78120;SDS011;67585;44.802;10.332;2024-02-23T10:01:30;6.60;;;3.08;;
78120;SDS011;67585;44.802;10.332;2024-02-23T10:03:58;8.65;;;2.80;;
78120;SDS011;67585;44.802;10.332;2024-02-23T10:06:25;7.45;;;2.28;;
78120;SDS011;67585;44.802;10.332;2024-02-23T10:08:51;7.68;;;2.40;;
78120;SDS011;67585;44.802;10.332;2024-02-23T10:11:20;8.20;;;2.72;;
78120;SDS011;67585;44.802;10.332;2024-02-23T10:13:47;6.18;;;2.53;;
78120;SDS011;67585;44.802;10.332;2024-02-23T10:16:14;6.50;;;2.47;;
78120;SDS011;67585;44.802;10.332;2024-02-23T10:18:41;5.90;;;2.15;;
78120;SDS011;67585;44.802;10.332;2024-02-23T10:21:06;5.45;;;2.45;;
78120;SDS011;67585;44.802;10.332;2024-02-23T10:23:32;8.38;;;2.25;;
78120;SDS011;67585;44.802;10.332;2024-02-23T10:25:57;5.97;;;3.40;;
78120;SDS011;67585;44.802;10.332;2024-02-23T10:28:23;7.28;;;1.70;;
78120;SDS011;67585;44.802;10.332;2024-02-23T10:30:48;6.28;;;2.42;;
78120;SDS011;67585;44.802;10.332;2024-02-23T10:33:14;6.88;;;1.98;;
78120;SDS011;67585;44.802;10.332;2024-02-23T10:35:39;5.22;;;1.00;;
78120;SDS011;67585;44.802;10.332;2024-02-23T10:38:08;6.72;;;1.83;;
78120;SDS011;67585;44.802;10.332;2024-02-23T10:40:37;5.05;;;1.38;;
78120;SDS011;67585;44.802;10.332;2024-02-23T10:43:08;3.65;;;1.40;;
78120;SDS011;67585;44.802;10.332;2024-02-23T10:45:38;4.47;;;1.75;;
78120;SDS011;67585;44.802;10.332;2024-02-23T10:48:05;2.90;;;0.43;;
78120;SDS011;67585;44.802;10.332;2024-02-23T10:50:34;3.50;;;1.10;;
78120;SDS011;67585;44.802;10.332;2024-02-23T10:53:01;4.53;;;0.93;;
78120;SDS011;67585;44.802;10.332;2024-02-23T10:55:26;6.80;;;1.42;;
78120;SDS011;67585;44.802;10.332;2024-02-23T10:57:55;4.80;;;0.70;;
78120;SDS011;67585;44.802;10.332;2024-02-23T11:00:23;5.38;;;1.80;;
78120;SDS011;67585;44.802;10.332;2024-02-23T11:05:16;4.70;;;1.65;;
78120;SDS011;67585;44.802;10.332;2024-02-23T11:10:15;5.45;;;2.17;;
78120;SDS011;67585;44.802;10.332;2024-02-23T11:12:41;5.72;;;1.40;;
78120;SDS011;67585;44.802;10.332;2024-02-23T11:15:06;7.55;;;1.45;;
78120;SDS011;67585;44.802;10.332;2024-02-23T11:17:33;5.40;;;1.25;;
78120;SDS011;67585;44.802;10.332;2024-02-23T11:20:04;5.00;;;1.42;;
78120;SDS011;67585;44.802;10.332;2024-02-23T11:22:30;3.50;;;0.95;;
78120;SDS011;67585;44.802;10.332;2024-02-23T11:25:01;5.85;;;1.25;;
78120;SDS011;67585;44.802;10.332;2024-02-23T11:27:32;4.50;;;1.02;;
78120;SDS011;67585;44.802;10.332;2024-02-23T11:30:08;5.70;;;1.73;;
78120;SDS011;67585;44.802;10.332;2024-02-23T11:32:46;4.57;;;1.73;;
78120;SDS011;67585;44.802;10.332;2024-02-23T11:35:16;4.32;;;1.27;;
78120;SDS011;67585;44.802;10.332;2024-02-23T11:40:14;6.88;;;1.98;;
78120;SDS011;67585;44.802;10.332;2024-02-23T11:42:43;6.40;;;1.73;;
78120;SDS011;67585;44.802;10.332;2024-02-23T11:45:09;6.00;;;0.98;;
78120;SDS011;67585;44.802;10.332;2024-02-23T11:47:36;4.75;;;1.95;;
78120;SDS011;67585;44.802;10.332;2024-02-23T11:50:01;4.60;;;2.08;;
78120;SDS011;67585;44.802;10.332;2024-02-23T11:52:27;6.78;;;1.65;;
78120;SDS011;67585;44.802;10.332;2024-02-23T11:54:52;4.13;;;0.57;;
78120;SDS011;67585;44.802;10.332;2024-02-23T11:57:18;3.53;;;0.82;;
78120;SDS011;67585;44.802;10.332;2024-02-23T11:59:43;3.70;;;1.60;;
78120;SDS011;67585;44.802;10.332;2024-02-23T12:02:09;5.57;;;0.77;;
78120;SDS011;67585;44.802;10.332;2024-02-23T12:04:34;5.07;;;1.67;;
78120;SDS011;67585;44.802;10.332;2024-02-23T12:07:00;7.15;;;1.25;;
78120;SDS011;67585;44.802;10.332;2024-02-23T12:09:25;5.30;;;1.65;;
78120;SDS011;67585;44.802;10.332;2024-02-23T12:11:51;5.53;;;1.65;;
78120;SDS011;67585;44.802;10.332;2024-02-23T12:14:17;5.50;;;0.75;;
78120;SDS011;67585;44.802;10.332;2024-02-23T12:16:43;4.22;;;2.25;;
78120;SDS011;67585;44.802;10.332;2024-02-23T12:19:08;4.03;;;0.85;;
78120;SDS011;67585;44.802;10.332;2024-02-23T12:21:34;4.25;;;1.17;;
78120;SDS011;67585;44.802;10.332;2024-02-23T12:24:05;6.15;;;1.83;;
78120;SDS011;67585;44.802;10.332;2024-02-23T12:26:32;7.40;;;2.65;;
78120;SDS011;67585;44.802;10.332;2024-02-23T12:29:01;6.60;;;2.60;;
78120;SDS011;67585;44.802;10.332;2024-02-23T12:31:28;5.90;;;2.53;;
78120;SDS011;67585;44.802;10.332;2024-02-23T12:33:54;5.85;;;2.17;;
78120;SDS011;67585;44.802;10.332;2024-02-23T12:36:22;5.55;;;1.42;;
78120;SDS011;67585;44.802;10.332;2024-02-23T12:38:48;6.03;;;2.55;;
78120;SDS011;67585;44.802;10.332;2024-02-23T12:41:14;6.10;;;1.80;;
78120;SDS011;67585;44.802;10.332;2024-02-23T12:43:40;6.43;;;2.35;;
78120;SDS011;67585;44.802;10.332;2024-02-23T12:46:05;7.20;;;3.22;;
78120;SDS011;67585;44.802;10.332;2024-02-23T12:48:33;8.55;;;3.30;;
78120;SDS011;67585;44.802;10.332;2024-02-23T12:50:58;8.00;;;2.95;;
78120;SDS011;67585;44.802;10.332;2024-02-23T12:53:31;7.25;;;3.38;;
78120;SDS011;67585;44.802;10.332;2024-02-23T12:56:10;5.55;;;2.35;;
78120;SDS011;67585;44.802;10.332;2024-02-23T12:58:39;5.57;;;1.80;;
78120;SDS011;67585;44.802;10.332;2024-02-23T13:01:06;5.75;;;2.47;;
78120;SDS011;67585;44.802;10.332;2024-02-23T13:03:33;5.63;;;1.20;;
78120;SDS011;67585;44.802;10.332;2024-02-23T13:06:03;5.07;;;2.42;;
78120;SDS011;67585;44.802;10.332;2024-02-23T13:08:29;5.38;;;2.38;;
78120;SDS011;67585;44.802;10.332;2024-02-23T13:10:55;3.92;;;0.77;;
78120;SDS011;67585;44.802;10.332;2024-02-23T13:13:22;4.45;;;1.38;;
78120;SDS011;67585;44.802;10.332;2024-02-23T13:15:47;5.07;;;1.63;;
78120;SDS011;67585;44.802;10.332;2024-02-23T13:18:14;5.47;;;1.40;;
78120;SDS011;67585;44.802;10.332;2024-02-23T13:20:40;3.92;;;0.63;;
78120;SDS011;67585;44.802;10.332;2024-02-23T13:23:07;4.05;;;1.88;;
78120;SDS011;67585;44.802;10.332;2024-02-23T13:25:36;6.03;;;2.03;;
78120;SDS011;67585;44.802;10.332;2024-02-23T13:28:02;5.18;;;2.10;;
78120;SDS011;67585;44.802;10.332;2024-02-23T13:30:28;4.97;;;1.70;;
78120;SDS011;67585;44.802;10.332;2024-02-23T13:32:53;4.15;;;1.42;;
78120;SDS011;67585;44.802;10.332;2024-02-23T13:35:19;5.53;;;2.33;;
78120;SDS011;67585;44.802;10.332;2024-02-23T13:37:45;5.10;;;2.08;;
78120;SDS011;67585;44.802;10.332;2024-02-23T13:40:10;5.22;;;3.72;;
78120;SDS011;67585;44.802;10.332;2024-02-23T13:42:36;5.18;;;2.78;;
78120;SDS011;67585;44.802;10.332;2024-02-23T13:45:05;5.90;;;1.92;;
78120;SDS011;67585;44.802;10.332;2024-02-23T13:47:33;4.43;;;1.05;;
78120;SDS011;67585;44.802;10.332;2024-02-23T13:50:00;7.03;;;2.25;;
78120;SDS011;67585;44.802;10.332;2024-02-23T13:52:26;6.88;;;2.15;;
78120;SDS011;67585;44.802;10.332;2024-02-23T13:54:52;5.47;;;1.92;;
78120;SDS011;67585;44.802;10.332;2024-02-23T13:57:17;4.85;;;1.95;;
78120;SDS011;67585;44.802;10.332;2024-02-23T13:59:43;6.32;;;2.15;;
78120;SDS011;67585;44.802;10.332;2024-02-23T14:02:08;5.50;;;2.17;;
78120;SDS011;67585;44.802;10.332;2024-02-23T14:04:34;6.15;;;2.05;;
78120;SDS011;67585;44.802;10.332;2024-02-23T14:07:01;4.63;;;1.67;;
78120;SDS011;67585;44.802;10.332;2024-02-23T14:09:28;6.20;;;2.72;;
78120;SDS011;67585;44.802;10.332;2024-02-23T14:11:54;5.43;;;2.63;;
78120;SDS011;67585;44.802;10.332;2024-02-23T14:14:19;5.72;;;2.97;;
78120;SDS011;67585;44.802;10.332;2024-02-23T14:16:45;6.38;;;3.17;;
78120;SDS011;67585;44.802;10.332;2024-02-23T14:19:11;4.60;;;1.27;;
78120;SDS011;67585;44.802;10.332;2024-02-23T14:21:36;8.18;;;2.30;;
78120;SDS011;67585;44.802;10.332;2024-02-23T14:24:02;7.50;;;2.63;;
78120;SDS011;67585;44.802;10.332;2024-02-23T14:26:28;5.25;;;1.85;;
78120;SDS011;67585;44.802;10.332;2024-02-23T14:28:54;5.03;;;1.70;;
78120;SDS011;67585;44.802;10.332;2024-02-23T14:31:19;4.95;;;2.00;;
78120;SDS011;67585;44.802;10.332;2024-02-23T14:33:45;3.83;;;1.55;;
78120;SDS011;67585;44.802;10.332;2024-02-23T14:36:10;4.60;;;1.33;;